createdAt,value
2016-09-20T00:00:11.490Z,1132.03
2016-09-20T00:01:11.467Z,1132
2016-09-20T00:02:11.459Z,1131.92
2016-09-20T00:03:11.463Z,1132.15
2016-09-20T00:04:11.471Z,1132.1
2016-09-20T00:05:11.478Z,1131.96
2016-09-20T00:06:11.467Z,1132.02
2016-09-20T00:07:11.480Z,1132.02
2016-09-20T00:08:11.472Z,1132.13
2016-09-20T00:09:11.465Z,1131.99
2016-09-20T00:10:11.462Z,1131.74
2016-09-20T00:11:11.467Z,1131.73
2016-09-20T00:12:11.476Z,1131.77
2016-09-20T00:13:11.478Z,1131.81
2016-09-20T00:14:11.485Z,1131.72
2016-09-20T00:15:11.490Z,1131.66
2016-09-20T00:16:11.496Z,1131.57
2016-09-20T00:17:11.465Z,1131.43
2016-09-20T00:18:11.468Z,1131.39
2016-09-20T00:19:11.492Z,1131.35
2016-09-20T00:20:11.506Z,1131.2
2016-09-20T00:21:11.476Z,1131.1
2016-09-20T00:22:11.495Z,1130.79
2016-09-20T00:23:11.469Z,1130.7
2016-09-20T00:24:11.475Z,1130.76
2016-09-20T00:25:11.480Z,1130.82
2016-09-20T00:26:11.485Z,1130.65
2016-09-20T00:27:11.480Z,1130.46
2016-09-20T00:28:11.482Z,1130.27
2016-09-20T00:29:11.486Z,1130.01
2016-09-20T00:30:11.487Z,1130.08
2016-09-20T00:31:11.480Z,1129.94
2016-09-20T00:32:11.515Z,1129.72
2016-09-20T00:33:11.505Z,1129.57
2016-09-20T00:34:11.483Z,1129.44
2016-09-20T00:35:11.496Z,1129.24
2016-09-20T00:36:11.500Z,1129.17
2016-09-20T00:37:11.489Z,1129.18
2016-09-20T00:38:11.484Z,1128.89
2016-09-20T00:39:11.502Z,1129.01
2016-09-20T00:40:11.505Z,1128.95
2016-09-20T00:41:11.489Z,1128.49
2016-09-20T00:42:11.509Z,1128.69
2016-09-20T00:43:11.506Z,1128.46
2016-09-20T00:44:11.504Z,1128.32
2016-09-20T00:45:11.503Z,1128.37
2016-09-20T00:46:11.508Z,1128.25
2016-09-20T00:47:11.553Z,1128.58
2016-09-20T00:48:11.499Z,1128.15
2016-09-20T00:49:11.497Z,1128.33
2016-09-20T00:50:11.515Z,1128.14
2016-09-20T00:51:11.521Z,1128.11
2016-09-20T00:52:11.499Z,1128.05
2016-09-20T00:53:11.503Z,1128.05
2016-09-20T00:54:11.512Z,1128.09
2016-09-20T00:55:11.510Z,1128.01
2016-09-20T00:56:11.517Z,1127.92
2016-09-20T00:57:11.510Z,1127.95
2016-09-20T00:58:11.513Z,1126.8
2016-09-20T00:59:11.521Z,1127.67
2016-09-20T01:00:11.514Z,1127.47
2016-09-20T01:01:11.511Z,1127.27
2016-09-20T01:02:11.550Z,1127.12
2016-09-20T01:03:11.516Z,1126.89
2016-09-20T01:04:11.509Z,1126.85
2016-09-20T01:05:11.528Z,1126.68
2016-09-20T01:06:11.524Z,1126.5
2016-09-20T01:07:11.535Z,1126.61
2016-09-20T01:08:11.525Z,1126.27
2016-09-20T01:09:11.517Z,1126.33
2016-09-20T01:10:11.539Z,1126.1
2016-09-20T01:11:11.527Z,1125.9
2016-09-20T01:12:11.518Z,1126.1
2016-09-20T01:13:11.526Z,1125.82
2016-09-20T01:14:11.533Z,1125.89
2016-09-20T01:15:11.522Z,1125.77
2016-09-20T01:16:11.526Z,1125.68
2016-09-20T01:17:11.530Z,1125.35
2016-09-20T01:18:11.538Z,1125.66
2016-09-20T01:19:11.531Z,1125.49
2016-09-20T01:20:11.525Z,1125.3
2016-09-20T01:21:11.541Z,1125.34
2016-09-20T01:22:11.546Z,1125.35
2016-09-20T01:23:11.537Z,1125.22
2016-09-20T01:24:11.533Z,1124.77
2016-09-20T01:25:11.537Z,1125.36
2016-09-20T01:26:11.531Z,1125.39
2016-09-20T01:27:11.525Z,1125.24
2016-09-20T01:28:11.534Z,1125.28
2016-09-20T01:29:11.528Z,1124.99
2016-09-20T01:30:11.531Z,1124.82
2016-09-20T01:31:11.532Z,1124.92
2016-09-20T01:32:11.544Z,1124.79
2016-09-20T01:33:11.575Z,1124.71
2016-09-20T01:34:11.563Z,1124.44
2016-09-20T01:35:11.557Z,1124.29
2016-09-20T01:36:11.551Z,1124.11
2016-09-20T01:37:11.544Z,1124.13
2016-09-20T01:38:11.541Z,1123.83
2016-09-20T01:39:11.548Z,1123.8
2016-09-20T01:40:11.546Z,1123.77
2016-09-20T01:41:11.538Z,1123.77
2016-09-20T01:42:11.560Z,1123.63
2016-09-20T01:43:11.550Z,1123.37
2016-09-20T01:44:11.544Z,1123.55
2016-09-20T01:45:11.558Z,1123.38
2016-09-20T01:46:11.541Z,1123.14
2016-09-20T01:47:11.548Z,1123.24
2016-09-20T01:48:11.542Z,1123.06
2016-09-20T01:49:11.558Z,1123.15
2016-09-20T01:50:11.560Z,1123.28
2016-09-20T01:51:11.562Z,1123.37
2016-09-20T01:52:11.552Z,1123.57
2016-09-20T01:53:11.557Z,1123.61
2016-09-20T01:54:11.558Z,1123.7
2016-09-20T01:55:11.564Z,1123.73
2016-09-20T01:56:11.564Z,1123.85
2016-09-20T01:57:11.573Z,1123.98
2016-09-20T01:58:11.565Z,1124.13
2016-09-20T01:59:11.557Z,1124.32
2016-09-20T02:00:11.575Z,1124.41
2016-09-20T02:01:11.557Z,1124.56
2016-09-20T02:02:11.563Z,1124.68
2016-09-20T02:03:11.573Z,1124.82
2016-09-20T02:04:11.563Z,1124.91
2016-09-20T02:05:11.570Z,1124.76
2016-09-20T02:06:11.575Z,1124.86
2016-09-20T02:07:11.560Z,1124.74
2016-09-20T02:08:11.572Z,1124.83
2016-09-20T02:09:11.573Z,1124.74
2016-09-20T02:10:11.579Z,1125.01
2016-09-20T02:11:11.579Z,1124.99
2016-09-20T02:12:11.582Z,1125.02
2016-09-20T02:13:11.574Z,1125.24
2016-09-20T02:14:11.563Z,1125.34
2016-09-20T02:15:11.587Z,1125.59
2016-09-20T02:16:11.577Z,1125.61
2016-09-20T02:17:11.569Z,1125.52
2016-09-20T02:18:11.583Z,1125.55
2016-09-20T02:19:11.569Z,1125.45
2016-09-20T02:20:11.576Z,1125.62
2016-09-20T02:21:11.582Z,1125.93
2016-09-20T02:22:11.578Z,1126.07
2016-09-20T02:23:11.582Z,1125.87
2016-09-20T02:24:11.575Z,1125.98
2016-09-20T02:25:11.577Z,1126.17
2016-09-20T02:26:11.600Z,1126.14
2016-09-20T02:27:11.582Z,1126.1
2016-09-20T02:28:11.601Z,1126.33
2016-09-20T02:29:11.594Z,1126.08
2016-09-20T02:30:11.584Z,1126.36
2016-09-20T02:31:11.590Z,1126.29
2016-09-20T02:32:11.595Z,1126.36
2016-09-20T02:33:11.614Z,1126.55
2016-09-20T02:34:11.607Z,1126.38
2016-09-20T02:35:11.589Z,1126.5
2016-09-20T02:36:11.595Z,1126.38
2016-09-20T02:37:11.607Z,1126.49
2016-09-20T02:38:11.595Z,1126.62
2016-09-20T02:39:11.601Z,1126.56
2016-09-20T02:40:11.593Z,1126.52
2016-09-20T02:41:11.600Z,1126.47
2016-09-20T02:42:11.596Z,1126.37
2016-09-20T02:43:11.611Z,1126.12
2016-09-20T02:44:11.604Z,1126.12
2016-09-20T02:45:11.596Z,1126.11
2016-09-20T02:46:11.611Z,1126.27
2016-09-20T02:47:11.611Z,1126.21
2016-09-20T02:48:11.610Z,1126.32
2016-09-20T02:49:11.598Z,1126.13
2016-09-20T02:50:11.633Z,1126.16
2016-09-20T02:51:11.615Z,1126.01
2016-09-20T02:52:11.611Z,1126.14
2016-09-20T02:53:11.637Z,1126.06
2016-09-20T02:54:11.601Z,1126.12
2016-09-20T02:55:11.615Z,1126.01
2016-09-20T02:56:11.617Z,1126.22
2016-09-20T02:57:11.608Z,1126.11
2016-09-20T02:58:11.628Z,1126.1
2016-09-20T02:59:11.608Z,1126.28
2016-09-20T03:00:11.608Z,1126.38
2016-09-20T03:01:11.612Z,1126.31
2016-09-20T03:02:11.620Z,1126.47
2016-09-20T03:03:11.611Z,1126.53
2016-09-20T03:04:11.620Z,1126.44
2016-09-20T03:05:11.627Z,1126.57
2016-09-20T03:06:11.631Z,1126.67
2016-09-20T03:07:11.632Z,1126.93
2016-09-20T03:08:11.623Z,1126.78
2016-09-20T03:09:11.637Z,1126.33
2016-09-20T03:10:11.637Z,1126.45
2016-09-20T03:11:11.630Z,1126.36
2016-09-20T03:12:11.640Z,1126.41
2016-09-20T03:13:11.645Z,1126.32
2016-09-20T03:14:11.652Z,1126.32
2016-09-20T03:15:11.627Z,1126.4
2016-09-20T03:16:11.627Z,1126.39
2016-09-20T03:17:11.641Z,1126.24
2016-09-20T03:18:11.628Z,1126.34
2016-09-20T03:19:11.643Z,1126.33
2016-09-20T03:20:11.623Z,1126.3
2016-09-20T03:21:11.633Z,1126.19
2016-09-20T03:22:11.639Z,1126.2
2016-09-20T03:23:11.657Z,1125.98
2016-09-20T03:24:11.645Z,1125.97
2016-09-20T03:25:11.638Z,1125.95
2016-09-20T03:26:11.643Z,1126.05
2016-09-20T03:27:11.641Z,1125.97
2016-09-20T03:28:11.650Z,1125.93
2016-09-20T03:29:11.648Z,1125.74
2016-09-20T03:30:11.656Z,1125.78
2016-09-20T03:31:11.653Z,1125.62
2016-09-20T03:32:11.690Z,1125.6
2016-09-20T03:33:11.660Z,1125.61
2016-09-20T03:34:11.636Z,1125.5
2016-09-20T03:35:11.652Z,1125.38
2016-09-20T03:36:11.652Z,1125.25
2016-09-20T03:37:11.640Z,1125.35
2016-09-20T03:38:11.665Z,1125.17
2016-09-20T03:39:11.658Z,1125.17
2016-09-20T03:40:11.662Z,1125.2
2016-09-20T03:41:11.669Z,1125.33
2016-09-20T03:42:11.646Z,1125.12
2016-09-20T03:43:11.653Z,1125.12
2016-09-20T03:44:11.653Z,1125.22
2016-09-20T03:45:11.655Z,1125.05
2016-09-20T03:46:11.661Z,1125.06
2016-09-20T03:47:11.662Z,1124.92
2016-09-20T03:48:11.654Z,1124.85
2016-09-20T03:49:11.657Z,1124.84
2016-09-20T03:50:11.647Z,1124.77
2016-09-20T03:51:11.670Z,1124.61
2016-09-20T03:52:11.663Z,1124.55
2016-09-20T03:53:11.667Z,1124.31
2016-09-20T03:54:11.660Z,1124.23
2016-09-20T03:55:11.657Z,1124.22
2016-09-20T03:56:11.659Z,1124.13
2016-09-20T03:57:11.659Z,1124.11
2016-09-20T03:58:11.665Z,1123.99
2016-09-20T03:59:11.665Z,1124.12
2016-09-20T04:00:11.682Z,1124.13
2016-09-20T04:01:11.680Z,1124.14
2016-09-20T04:02:11.659Z,1124.11
2016-09-20T04:03:11.666Z,1123.97
2016-09-20T04:04:11.670Z,1123.77
2016-09-20T04:05:11.662Z,1123.81
2016-09-20T04:06:11.673Z,1123.84
2016-09-20T04:07:11.665Z,1123.62
2016-09-20T04:08:11.665Z,1123.54
2016-09-20T04:09:11.665Z,1123.66
2016-09-20T04:10:11.671Z,1123.55
2016-09-20T04:11:11.670Z,1123.37
2016-09-20T04:12:11.678Z,1123.65
2016-09-20T04:13:11.674Z,1123.33
2016-09-20T04:14:11.676Z,1123.49
2016-09-20T04:15:11.667Z,1123.57
2016-09-20T04:16:11.676Z,1123.74
2016-09-20T04:17:11.679Z,1123.66
2016-09-20T04:18:11.678Z,1123.67
2016-09-20T04:19:11.681Z,1123.7
2016-09-20T04:20:11.701Z,1123.52
2016-09-20T04:21:11.684Z,1123.68
2016-09-20T04:22:11.684Z,1123.7
2016-09-20T04:23:11.677Z,1123.76
2016-09-20T04:24:11.693Z,1123.62
2016-09-20T04:25:11.689Z,1123.43
2016-09-20T04:26:11.685Z,1123.62
2016-09-20T04:27:11.688Z,1123.57
2016-09-20T04:28:11.684Z,1123.63
2016-09-20T04:29:11.684Z,1123.64
2016-09-20T04:30:11.695Z,1123.52
2016-09-20T04:31:11.694Z,1123.59
2016-09-20T04:32:11.693Z,1123.46
2016-09-20T04:33:11.718Z,1123.46
2016-09-20T04:34:11.786Z,1123.22
2016-09-20T04:35:11.692Z,1123.44
2016-09-20T04:36:11.688Z,1123.37
2016-09-20T04:37:11.709Z,1123.38
2016-09-20T04:38:11.696Z,1123.31
2016-09-20T04:39:11.692Z,1123.35
2016-09-20T04:40:11.706Z,1123.36
2016-09-20T04:41:11.702Z,1123.22
2016-09-20T04:42:11.696Z,1123.19
2016-09-20T04:43:11.697Z,1123.02
2016-09-20T04:44:11.707Z,1123.06
2016-09-20T04:45:11.711Z,1123.07
2016-09-20T04:46:11.707Z,1122.96
2016-09-20T04:47:11.706Z,1122.78
2016-09-20T04:48:11.707Z,1122.84
2016-09-20T04:49:11.715Z,1122.88
2016-09-20T04:50:11.712Z,1122.81
2016-09-20T04:51:11.720Z,1122.86
2016-09-20T04:52:11.700Z,1122.55
2016-09-20T04:53:11.718Z,1122.29
2016-09-20T04:54:11.708Z,1122.29
2016-09-20T04:55:11.706Z,1122
2016-09-20T04:56:11.716Z,1121.82
2016-09-20T04:57:11.719Z,1121.95
2016-09-20T04:58:11.722Z,1121.75
2016-09-20T04:59:11.741Z,1121.92
2016-09-20T05:00:11.724Z,1121.64
2016-09-20T05:01:11.715Z,1121.6
2016-09-20T05:02:11.717Z,1121.73
2016-09-20T05:03:11.727Z,1121.61
2016-09-20T05:04:11.720Z,1121.71
2016-09-20T05:05:11.724Z,1121.65
2016-09-20T05:06:11.720Z,1121.36
2016-09-20T05:07:11.714Z,1121.41
2016-09-20T05:08:11.814Z,1121.37
2016-09-20T05:09:11.727Z,1121.1
2016-09-20T05:10:11.772Z,1121.16
2016-09-20T05:11:11.817Z,1121.12
2016-09-20T05:12:11.733Z,1121.1
2016-09-20T05:13:11.799Z,1121.13
2016-09-20T05:14:11.734Z,1121.09
2016-09-20T05:15:11.725Z,1121.1
2016-09-20T05:16:11.728Z,1121.09
2016-09-20T05:17:11.733Z,1121.09
2016-09-20T05:18:11.738Z,1121.2
2016-09-20T05:19:11.852Z,1121.17
2016-09-20T05:20:11.727Z,1121.2
2016-09-20T05:21:11.759Z,1121.63
2016-09-20T05:22:11.754Z,1121.64
2016-09-20T05:23:11.728Z,1121.79
2016-09-20T05:24:11.797Z,1121.76
2016-09-20T05:25:11.741Z,1121.97
2016-09-20T05:26:11.749Z,1121.97
2016-09-20T05:27:11.747Z,1121.93
2016-09-20T05:28:11.765Z,1122.31
2016-09-20T05:29:11.756Z,1122.07
2016-09-20T05:30:11.749Z,1122.47
2016-09-20T05:31:11.740Z,1122.71
2016-09-20T05:32:11.791Z,1122.88
2016-09-20T05:33:11.772Z,1122.99
2016-09-20T05:34:11.756Z,1123.21
2016-09-20T05:35:11.743Z,1123.41
2016-09-20T05:36:11.846Z,1123.72
2016-09-20T05:37:11.751Z,1123.99
2016-09-20T05:38:11.760Z,1124.13
2016-09-20T05:39:11.750Z,1124.32
2016-09-20T05:40:11.756Z,1124.22
2016-09-20T05:41:11.747Z,1124.2
2016-09-20T05:42:11.753Z,1124.46
2016-09-20T05:43:11.751Z,1124.5
2016-09-20T05:44:11.855Z,1124.54
2016-09-20T05:45:11.754Z,1124.59
2016-09-20T05:46:11.756Z,1124.74
2016-09-20T05:47:11.770Z,1124.93
2016-09-20T05:48:11.762Z,1125.01
2016-09-20T05:49:11.756Z,1125.35
2016-09-20T05:50:11.785Z,1125.68
2016-09-20T05:51:11.766Z,1126.02
2016-09-20T05:52:11.761Z,1126.22
2016-09-20T05:53:11.759Z,1126.53
2016-09-20T05:54:11.775Z,1126.94
2016-09-20T05:55:11.767Z,1127.2
2016-09-20T05:56:12.332Z,1127.44
2016-09-20T05:57:11.767Z,1127.93
2016-09-20T05:58:11.911Z,1128.04
2016-09-20T05:59:11.780Z,1128.56
2016-09-20T06:00:11.770Z,1128.64
2016-09-20T06:01:11.763Z,1128.8
2016-09-20T06:02:11.784Z,1128.92
2016-09-20T06:03:11.772Z,1128.92
2016-09-20T06:04:11.777Z,1129.14
2016-09-20T06:05:11.762Z,1129.37
2016-09-20T06:06:11.784Z,1129.57
2016-09-20T06:07:11.777Z,1129.77
2016-09-20T06:08:11.780Z,1130.11
2016-09-20T06:09:11.776Z,1130.29
2016-09-20T06:10:11.781Z,1130.62
2016-09-20T06:11:11.770Z,1130.8
2016-09-20T06:12:11.780Z,1131.15
2016-09-20T06:13:11.770Z,1131.35
2016-09-20T06:14:11.805Z,1131.95
2016-09-20T06:15:11.786Z,1131.96
2016-09-20T06:16:11.777Z,1132.24
2016-09-20T06:17:11.790Z,1132.2
2016-09-20T06:18:11.776Z,1132.58
2016-09-20T06:19:11.783Z,1132.45
2016-09-20T06:20:11.800Z,1132.4
2016-09-20T06:21:11.780Z,1132.84
2016-09-20T06:22:11.784Z,1133.06
2016-09-20T06:23:11.794Z,1133.27
2016-09-20T06:24:11.793Z,1133.82
2016-09-20T06:25:11.792Z,1134.17
2016-09-20T06:26:11.799Z,1134.59
2016-09-20T06:27:11.815Z,1135.04
2016-09-20T06:28:11.799Z,1135.34
2016-09-20T06:29:11.802Z,1135.66
2016-09-20T06:30:11.789Z,1135.97
2016-09-20T06:31:11.824Z,1136.16
2016-09-20T06:32:11.800Z,1136.53
2016-09-20T06:33:11.790Z,1136.72
2016-09-20T06:34:11.798Z,1136.83
2016-09-20T06:35:11.790Z,1137.21
2016-09-20T06:36:11.844Z,1137.33
2016-09-20T06:37:11.849Z,1137.6
2016-09-20T06:38:11.811Z,1137.93
2016-09-20T06:39:11.803Z,1138.09
2016-09-20T06:40:11.806Z,1138.14
2016-09-20T06:41:11.802Z,1138.53
2016-09-20T06:42:11.821Z,1138.54
2016-09-20T06:43:11.822Z,1138.85
2016-09-20T06:44:11.822Z,1138.96
2016-09-20T06:45:11.828Z,1139.04
2016-09-20T06:46:11.820Z,1139.03
2016-09-20T06:47:11.831Z,1139.26
2016-09-20T06:48:11.818Z,1139.35
2016-09-20T06:49:11.876Z,1139.48
2016-09-20T06:50:11.824Z,1139.5
2016-09-20T06:51:11.838Z,1139.57
2016-09-20T06:52:11.837Z,1139.85
2016-09-20T06:53:11.834Z,1140.04
2016-09-20T06:54:11.834Z,1140.43
2016-09-20T06:55:11.832Z,1140.5
2016-09-20T06:56:11.842Z,1140.76
2016-09-20T06:57:11.835Z,1141.08
2016-09-20T06:58:11.818Z,1141.36
2016-09-20T06:59:11.821Z,1141.49
2016-09-20T07:00:11.843Z,1141.67
2016-09-20T07:01:11.881Z,1141.83
2016-09-20T07:02:11.825Z,1141.76
2016-09-20T07:03:11.843Z,1141.97
2016-09-20T07:04:11.829Z,1142.21
2016-09-20T07:05:11.828Z,1142.22
2016-09-20T07:06:11.851Z,1142.89
2016-09-20T07:07:11.841Z,1143.13
2016-09-20T07:08:12.131Z,1143.22
2016-09-20T07:09:11.854Z,1143.59
2016-09-20T07:10:11.845Z,1143.91
2016-09-20T07:11:11.825Z,1144.28
2016-09-20T07:12:11.834Z,1144.75
2016-09-20T07:13:11.840Z,1145.1
2016-09-20T07:14:11.844Z,1145.66
2016-09-20T07:15:11.840Z,1146.06
2016-09-20T07:16:11.833Z,1146.59
2016-09-20T07:17:11.844Z,1146.97
2016-09-20T07:18:11.845Z,1147.22
2016-09-20T07:19:11.839Z,1147.8
2016-09-20T07:20:11.859Z,1148.01
2016-09-20T07:21:11.847Z,1148.49
2016-09-20T07:22:11.855Z,1148.95
2016-09-20T07:23:11.848Z,1149.3
2016-09-20T07:24:11.856Z,1149.89
2016-09-20T07:25:11.859Z,1150.38
2016-09-20T07:26:11.856Z,1150.72
2016-09-20T07:27:11.861Z,1151.05
2016-09-20T07:28:11.867Z,1151.32
2016-09-20T07:29:11.845Z,1151.7
2016-09-20T07:30:11.858Z,1152.14
2016-09-20T07:31:11.866Z,1152.39
2016-09-20T07:32:11.863Z,1152.84
2016-09-20T07:33:11.857Z,1153.19
2016-09-20T07:34:11.862Z,1153.52
2016-09-20T07:35:11.855Z,1153.93
2016-09-20T07:36:11.862Z,1154.28
2016-09-20T07:37:11.849Z,1154.58
2016-09-20T07:38:11.866Z,1155.01
2016-09-20T07:39:11.862Z,1155.22
2016-09-20T07:40:11.892Z,1155.41
2016-09-20T07:41:11.875Z,1155.82
2016-09-20T07:42:11.866Z,1155.86
2016-09-20T07:43:11.872Z,1156.18
2016-09-20T07:44:11.856Z,1156.63
2016-09-20T07:45:11.878Z,1156.99
2016-09-20T07:46:11.856Z,1157.31
2016-09-20T07:47:11.878Z,1157.62
2016-09-20T07:48:11.881Z,1157.85
2016-09-20T07:49:11.884Z,1158.28
2016-09-20T07:50:11.871Z,1158.61
2016-09-20T07:51:11.875Z,1158.91
2016-09-20T07:52:11.874Z,1159.21
2016-09-20T07:53:11.879Z,1159.52
2016-09-20T07:54:11.885Z,1159.91
2016-09-20T07:55:12.156Z,1160.1
2016-09-20T07:56:11.875Z,1160.49
2016-09-20T07:57:11.884Z,1160.7
2016-09-20T07:58:11.901Z,1160.95
2016-09-20T07:59:11.879Z,1161.24
2016-09-20T08:00:11.914Z,1161.39
2016-09-20T08:01:11.888Z,1161.64
2016-09-20T08:02:11.891Z,1161.99
2016-09-20T08:03:11.884Z,1162.26
2016-09-20T08:04:11.920Z,1162.53
2016-09-20T08:05:11.978Z,1162.84
2016-09-20T08:06:11.956Z,1163.06
2016-09-20T08:07:11.923Z,1163.32
2016-09-20T08:08:11.975Z,1163.51
2016-09-20T08:09:12.116Z,1163.68
2016-09-20T08:10:11.891Z,1163.85
2016-09-20T08:11:12.051Z,1164.01
2016-09-20T08:12:11.897Z,1164.1
2016-09-20T08:13:12.051Z,1164.19
2016-09-20T08:14:11.884Z,1164.28
2016-09-20T08:15:11.992Z,1164.31
2016-09-20T08:16:11.897Z,1164.36
2016-09-20T08:17:12.112Z,1164.39
2016-09-20T08:18:11.955Z,1164.38
2016-09-20T08:19:11.901Z,1164.4
2016-09-20T08:20:11.892Z,1164.4
2016-09-20T08:21:11.896Z,1164.39
2016-09-20T08:22:11.891Z,1164.36
2016-09-20T08:23:11.905Z,1164.3
2016-09-20T08:24:11.896Z,1164.27
2016-09-20T08:25:11.907Z,1164.24
2016-09-20T08:26:11.913Z,1164.21
2016-09-20T08:27:11.898Z,1164.12
2016-09-20T08:28:11.916Z,1164.02
2016-09-20T08:29:11.903Z,1163.93
2016-09-20T08:30:11.909Z,1163.81
2016-09-20T08:31:11.900Z,1163.7
2016-09-20T08:32:11.927Z,1163.55
2016-09-20T08:33:11.907Z,1163.36
2016-09-20T08:34:11.921Z,1163.19
2016-09-20T08:35:11.919Z,1162.91
2016-09-20T08:36:11.910Z,1162.66
2016-09-20T08:37:11.917Z,1162.37
2016-09-20T08:38:11.914Z,1162.03
2016-09-20T08:39:11.917Z,1161.86
2016-09-20T08:40:11.901Z,1161.73
2016-09-20T08:41:11.910Z,1161.36
2016-09-20T08:42:11.916Z,1161.09
2016-09-20T08:43:11.914Z,1160.78
2016-09-20T08:44:11.920Z,1160.57
2016-09-20T08:45:11.926Z,1160.19
2016-09-20T08:46:11.917Z,1159.85
2016-09-20T08:47:11.913Z,1159.45
2016-09-20T08:48:11.919Z,1159.07
2016-09-20T08:49:11.929Z,1158.84
2016-09-20T08:50:11.915Z,1158.66
2016-09-20T08:51:11.925Z,1158.4
2016-09-20T08:52:11.929Z,1158.12
2016-09-20T08:53:11.923Z,1157.77
2016-09-20T08:54:11.942Z,1157.55
2016-09-20T08:55:11.943Z,1157.1
2016-09-20T08:56:11.930Z,1156.55
2016-09-20T08:57:11.964Z,1156.22
2016-09-20T08:58:11.939Z,1155.83
2016-09-20T08:59:11.948Z,1155.52
2016-09-20T09:00:11.941Z,1155.13
2016-09-20T09:01:11.992Z,1154.51
2016-09-20T09:02:11.954Z,1153.88
2016-09-20T09:03:11.929Z,1153.29
2016-09-20T09:04:11.951Z,1152.84
2016-09-20T09:05:11.958Z,1152.25
2016-09-20T09:06:11.945Z,1151.64
2016-09-20T09:07:11.951Z,1151.26
2016-09-20T09:08:11.948Z,1151.14
2016-09-20T09:09:11.949Z,1150.6
2016-09-20T09:10:11.950Z,1150.08
2016-09-20T09:11:11.948Z,1149.69
2016-09-20T09:12:11.960Z,1149.41
2016-09-20T09:13:11.971Z,1148.84
2016-09-20T09:14:11.946Z,1148.21
2016-09-20T09:15:11.944Z,1147.48
2016-09-20T09:16:11.951Z,1146.97
2016-09-20T09:17:11.945Z,1146.41
2016-09-20T09:18:11.961Z,1145.83
2016-09-20T09:19:11.955Z,1145.22
2016-09-20T09:20:11.949Z,1144.54
2016-09-20T09:21:11.946Z,1143.8
2016-09-20T09:22:11.952Z,1142.8
2016-09-20T09:23:11.964Z,1141.7
2016-09-20T09:24:11.952Z,1140.53
2016-09-20T09:25:11.958Z,1139.54
2016-09-20T09:26:11.965Z,1139.1
2016-09-20T09:27:11.973Z,1137.91
2016-09-20T09:28:11.952Z,1137.01
2016-09-20T09:29:11.956Z,1135.84
2016-09-20T09:30:11.965Z,1134.69
2016-09-20T09:31:11.972Z,1133.18
2016-09-20T09:32:11.971Z,1131.7
2016-09-20T09:33:11.965Z,1130.15
2016-09-20T09:34:11.962Z,1128.21
2016-09-20T09:35:11.964Z,1126.21
2016-09-20T09:36:11.970Z,1124.68
2016-09-20T09:37:11.961Z,1123.31
2016-09-20T09:38:11.972Z,1121.38
2016-09-20T09:39:12.634Z,1119.54
2016-09-20T09:40:11.970Z,1118.59
2016-09-20T09:41:11.964Z,1117.47
2016-09-20T09:42:11.968Z,1116.1
2016-09-20T09:43:11.973Z,1114.88
2016-09-20T09:44:11.967Z,1113.98
2016-09-20T09:45:11.986Z,1113.45
2016-09-20T09:46:11.977Z,1112.84
2016-09-20T09:47:11.985Z,1113.28
2016-09-20T09:48:12.023Z,1113.19
2016-09-20T09:49:11.985Z,1112
2016-09-20T09:50:11.991Z,1111.17
2016-09-20T09:51:11.980Z,1109.23
2016-09-20T09:52:11.981Z,1107.61
2016-09-20T09:53:12.003Z,1106.18
2016-09-20T09:54:11.984Z,1104.65
2016-09-20T09:55:11.992Z,1103.48
2016-09-20T09:56:11.996Z,1102.76
2016-09-20T09:57:11.990Z,1101.83
2016-09-20T09:58:11.984Z,1100.61
2016-09-20T09:59:11.999Z,1098.96
2016-09-20T10:00:11.995Z,1096.57
2016-09-20T10:01:11.991Z,1095.27
2016-09-20T10:02:11.996Z,1093.74
2016-09-20T10:03:11.995Z,1093.04
2016-09-20T10:04:12.016Z,1092.98
2016-09-20T10:05:12.000Z,1093.06
2016-09-20T10:06:12.012Z,1092.53
2016-09-20T10:07:11.992Z,1093.87
2016-09-20T10:08:11.991Z,1094.41
2016-09-20T10:09:12.000Z,1094.93
2016-09-20T10:10:12.013Z,1094.49
2016-09-20T10:11:12.012Z,1093.51
2016-09-20T10:12:12.012Z,1091.48
2016-09-20T10:13:12.016Z,1089.57
2016-09-20T10:14:12.015Z,1087.98
2016-09-20T10:15:12.008Z,1086.66
2016-09-20T10:16:12.008Z,1085.04
2016-09-20T10:17:12.006Z,1084.51
2016-09-20T10:18:12.015Z,1083.33
2016-09-20T10:19:12.012Z,1082.04
2016-09-20T10:20:12.004Z,1081.82
2016-09-20T10:21:12.015Z,1081.03
2016-09-20T10:22:12.022Z,1079.38
2016-09-20T10:23:12.022Z,1077.77
2016-09-20T10:24:12.011Z,1076.06
2016-09-20T10:25:12.075Z,1075.62
2016-09-20T10:26:12.015Z,1077.38
2016-09-20T10:27:12.030Z,1078.7
2016-09-20T10:28:12.027Z,1079.89
2016-09-20T10:29:12.035Z,1080.26
2016-09-20T10:30:12.032Z,1079.83
2016-09-20T10:31:12.018Z,1080.23
2016-09-20T10:32:12.024Z,1080.09
2016-09-20T10:33:12.049Z,1078.18
2016-09-20T10:34:12.082Z,1075.68
2016-09-20T10:35:12.035Z,1072.43
2016-09-20T10:36:12.050Z,1069.47
2016-09-20T10:37:12.044Z,1066.79
2016-09-20T10:38:12.024Z,1064.32
2016-09-20T10:39:12.039Z,1061.86
2016-09-20T10:40:12.040Z,1060.28
2016-09-20T10:41:12.050Z,1059.75
2016-09-20T10:42:12.088Z,1060.9
2016-09-20T10:43:12.039Z,1064.76
2016-09-20T10:44:12.043Z,1067.39
2016-09-20T10:45:12.034Z,1069.73
2016-09-20T10:46:12.043Z,1072.83
2016-09-20T10:47:12.051Z,1074.18
2016-09-20T10:48:12.038Z,1074.45
2016-09-20T10:49:12.048Z,1074.74
2016-09-20T10:50:12.050Z,1075.36
2016-09-20T10:51:12.051Z,1075.62
2016-09-20T10:52:12.060Z,1076.02
2016-09-20T10:53:12.051Z,1076.8
2016-09-20T10:54:12.053Z,1077.09
2016-09-20T10:55:12.076Z,1077.14
2016-09-20T10:56:12.043Z,1078.12
2016-09-20T10:57:12.059Z,1079.85
2016-09-20T10:58:12.058Z,1081.36
2016-09-20T10:59:12.064Z,1083.28
2016-09-20T11:00:12.050Z,1084.61
2016-09-20T11:01:12.056Z,1085.63
2016-09-20T11:02:12.060Z,1085.85
2016-09-20T11:03:12.087Z,1087.39
2016-09-20T11:04:12.072Z,1088.61
2016-09-20T11:05:12.063Z,1089.75
2016-09-20T11:06:12.072Z,1090.45
2016-09-20T11:07:12.066Z,1090.54
2016-09-20T11:08:12.075Z,1089.55
2016-09-20T11:09:12.083Z,1088.88
2016-09-20T11:10:12.077Z,1088.1
2016-09-20T11:11:12.085Z,1088.25
2016-09-20T11:12:12.095Z,1089.12
2016-09-20T11:13:12.069Z,1091.04
2016-09-20T11:14:12.079Z,1091.33
2016-09-20T11:15:12.069Z,1091.3
2016-09-20T11:16:12.073Z,1090.72
2016-09-20T11:17:12.080Z,1089.66
2016-09-20T11:18:12.085Z,1089.94
2016-09-20T11:19:12.088Z,1090.53
2016-09-20T11:20:12.076Z,1090.38
2016-09-20T11:21:12.087Z,1091.07
2016-09-20T11:22:12.078Z,1093.08
2016-09-20T11:23:12.086Z,1097.33
2016-09-20T11:24:12.094Z,1101.51
2016-09-20T11:25:12.069Z,1104.2
2016-09-20T11:26:12.090Z,1106.56
2016-09-20T11:27:12.093Z,1107.59
2016-09-20T11:28:12.075Z,1108.68
2016-09-20T11:29:12.094Z,1110.37
2016-09-20T11:30:12.101Z,1111.64
2016-09-20T11:31:12.087Z,1112.93
2016-09-20T11:32:12.088Z,1114.4
2016-09-20T11:33:12.094Z,1115.97
2016-09-20T11:34:12.156Z,1117.16
2016-09-20T11:35:12.098Z,1118.77
2016-09-20T11:36:12.098Z,1120.19
2016-09-20T11:37:12.105Z,1121.62
2016-09-20T11:38:12.105Z,1122.9
2016-09-20T11:39:12.089Z,1123.66
2016-09-20T11:40:12.098Z,1123.99
2016-09-20T11:41:12.101Z,1124.02
2016-09-20T11:42:12.105Z,1123.91
2016-09-20T11:43:12.102Z,1123.8
2016-09-20T11:44:12.105Z,1123.88
2016-09-20T11:45:12.102Z,1123.81
2016-09-20T11:46:12.104Z,1124.12
2016-09-20T11:47:12.111Z,1124.39
2016-09-20T11:48:12.127Z,1124.71
2016-09-20T11:49:12.121Z,1124.47
2016-09-20T11:50:12.102Z,1123.63
2016-09-20T11:51:12.119Z,1121.96
2016-09-20T11:52:12.111Z,1120.69
2016-09-20T11:53:12.124Z,1118.81
2016-09-20T11:54:12.133Z,1118.67
2016-09-20T11:55:12.120Z,1118.41
2016-09-20T11:56:12.121Z,1118.81
2016-09-20T11:57:12.112Z,1118.97
2016-09-20T11:58:12.128Z,1118.34
2016-09-20T11:59:12.111Z,1117.26
2016-09-20T12:00:12.127Z,1115.94
2016-09-20T12:01:12.119Z,1114.28
2016-09-20T12:02:12.122Z,1112.3
2016-09-20T12:03:12.117Z,1110.15
2016-09-20T12:04:12.152Z,1107.68
2016-09-20T12:05:12.143Z,1105.76
2016-09-20T12:06:12.144Z,1103.71
2016-09-20T12:07:12.125Z,1102.22
2016-09-20T12:08:12.143Z,1101.78